sensor_id;sensor_type;location;lat;lon;timestamp;temperature;humidity
27647;DHT22;42229;51.230;6.240;2023-06-19T00:00:59;23.70;59.70
27647;DHT22;42229;51.230;6.240;2023-06-19T00:03:26;23.60;59.80
27647;DHT22;42229;51.230;6.240;2023-06-19T00:05:52;23.60;59.70
27647;DHT22;42229;51.230;6.240;2023-06-19T00:08:18;23.60;59.70
27647;DHT22;42229;51.230;6.240;2023-06-19T00:10:44;23.50;60.00
27647;DHT22;42229;51.230;6.240;2023-06-19T00:13:10;23.50;60.10
27647;DHT22;42229;51.230;6.240;2023-06-19T00:15:37;23.50;60.20
27647;DHT22;42229;51.230;6.240;2023-06-19T00:18:03;23.40;60.30
27647;DHT22;42229;51.230;6.240;2023-06-19T00:20:30;23.40;60.20
27647;DHT22;42229;51.230;6.240;2023-06-19T00:22:56;23.30;60.10
27647;DHT22;42229;51.230;6.240;2023-06-19T00:25:22;23.30;60.10
27647;DHT22;42229;51.230;6.240;2023-06-19T00:27:48;23.30;60.00
27647;DHT22;42229;51.230;6.240;2023-06-19T00:30:15;23.20;60.00
27647;DHT22;42229;51.230;6.240;2023-06-19T00:32:41;23.20;60.00
27647;DHT22;42229;51.230;6.240;2023-06-19T00:35:15;23.20;60.00
27647;DHT22;42229;51.230;6.240;2023-06-19T00:37:44;23.10;60.40
27647;DHT22;42229;51.230;6.240;2023-06-19T00:40:12;23.00;60.10
27647;DHT22;42229;51.230;6.240;2023-06-19T00:42:50;23.00;60.20
27647;DHT22;42229;51.230;6.240;2023-06-19T00:45:16;22.90;60.30
27647;DHT22;42229;51.230;6.240;2023-06-19T00:47:43;22.90;60.70
27647;DHT22;42229;51.230;6.240;2023-06-19T00:50:09;22.90;60.50
27647;DHT22;42229;51.230;6.240;2023-06-19T00:52:35;22.80;60.40
27647;DHT22;42229;51.230;6.240;2023-06-19T00:55:03;22.80;60.40
27647;DHT22;42229;51.230;6.240;2023-06-19T00:57:30;22.80;60.60
27647;DHT22;42229;51.230;6.240;2023-06-19T00:59:57;22.70;60.90
27647;DHT22;42229;51.230;6.240;2023-06-19T01:02:24;22.70;61.10
27647;DHT22;42229;51.230;6.240;2023-06-19T01:04:51;22.70;60.90
27647;DHT22;42229;51.230;6.240;2023-06-19T01:07:20;22.60;60.90
27647;DHT22;42229;51.230;6.240;2023-06-19T01:09:51;22.60;60.90
27647;DHT22;42229;51.230;6.240;2023-06-19T01:12:20;22.60;61.50
27647;DHT22;42229;51.230;6.240;2023-06-19T01:14:52;22.60;61.20
27647;DHT22;42229;51.230;6.240;2023-06-19T01:17:20;22.60;61.20
27647;DHT22;42229;51.230;6.240;2023-06-19T01:19:47;22.70;61.40
27647;DHT22;42229;51.230;6.240;2023-06-19T01:22:24;22.60;61.30
27647;DHT22;42229;51.230;6.240;2023-06-19T01:24:53;22.60;62.30
27647;DHT22;42229;51.230;6.240;2023-06-19T01:27:20;22.70;62.20
27647;DHT22;42229;51.230;6.240;2023-06-19T01:29:47;22.60;62.70
27647;DHT22;42229;51.230;6.240;2023-06-19T01:32:15;22.70;63.20
27647;DHT22;42229;51.230;6.240;2023-06-19T01:34:46;22.70;62.20
27647;DHT22;42229;51.230;6.240;2023-06-19T01:37:14;22.60;61.60
27647;DHT22;42229;51.230;6.240;2023-06-19T01:39:41;22.60;61.50
27647;DHT22;42229;51.230;6.240;2023-06-19T01:42:11;22.60;61.40
27647;DHT22;42229;51.230;6.240;2023-06-19T01:44:37;22.60;61.80
27647;DHT22;42229;51.230;6.240;2023-06-19T01:47:07;22.60;61.60
27647;DHT22;42229;51.230;6.240;2023-06-19T01:49:35;22.60;62.00
27647;DHT22;42229;51.230;6.240;2023-06-19T01:52:03;22.60;62.10
27647;DHT22;42229;51.230;6.240;2023-06-19T01:54:30;22.50;62.00
27647;DHT22;42229;51.230;6.240;2023-06-19T01:56:57;22.60;61.80
27647;DHT22;42229;51.230;6.240;2023-06-19T01:59:23;22.60;62.10
27647;DHT22;42229;51.230;6.240;2023-06-19T02:01:49;22.60;62.70
27647;DHT22;42229;51.230;6.240;2023-06-19T02:04:15;22.60;62.90
27647;DHT22;42229;51.230;6.240;2023-06-19T02:06:42;22.70;62.80
27647;DHT22;42229;51.230;6.240;2023-06-19T02:09:08;22.70;62.80
27647;DHT22;42229;51.230;6.240;2023-06-19T02:11:38;22.70;64.00
27647;DHT22;42229;51.230;6.240;2023-06-19T02:14:04;22.80;63.60
27647;DHT22;42229;51.230;6.240;2023-06-19T02:16:30;22.80;64.30
27647;DHT22;42229;51.230;6.240;2023-06-19T02:18:56;22.90;64.40
27647;DHT22;42229;51.230;6.240;2023-06-19T02:21:22;22.90;64.80
27647;DHT22;42229;51.230;6.240;2023-06-19T02:23:51;23.00;67.10
27647;DHT22;42229;51.230;6.240;2023-06-19T02:26:17;23.00;66.50
27647;DHT22;42229;51.230;6.240;2023-06-19T02:28:45;23.10;68.90
27647;DHT22;42229;51.230;6.240;2023-06-19T02:31:11;23.10;70.10
27647;DHT22;42229;51.230;6.240;2023-06-19T02:33:37;23.10;69.80
27647;DHT22;42229;51.230;6.240;2023-06-19T02:36:04;23.10;69.50
27647;DHT22;42229;51.230;6.240;2023-06-19T02:38:30;23.20;68.90
27647;DHT22;42229;51.230;6.240;2023-06-19T02:40:56;23.20;70.20
27647;DHT22;42229;51.230;6.240;2023-06-19T02:43:29;23.20;68.70
27647;DHT22;42229;51.230;6.240;2023-06-19T02:45:55;23.20;69.10
27647;DHT22;42229;51.230;6.240;2023-06-19T02:48:21;23.20;71.20
27647;DHT22;42229;51.230;6.240;2023-06-19T02:50:49;23.10;71.10
27647;DHT22;42229;51.230;6.240;2023-06-19T02:53:15;23.10;70.60
27647;DHT22;42229;51.230;6.240;2023-06-19T02:55:42;23.10;69.90
27647;DHT22;42229;51.230;6.240;2023-06-19T02:58:08;23.10;68.90
27647;DHT22;42229;51.230;6.240;2023-06-19T03:00:38;23.00;69.30
27647;DHT22;42229;51.230;6.240;2023-06-19T03:03:04;22.90;72.60
27647;DHT22;42229;51.230;6.240;2023-06-19T03:05:31;22.90;71.30
27647;DHT22;42229;51.230;6.240;2023-06-19T03:07:57;22.80;70.70
27647;DHT22;42229;51.230;6.240;2023-06-19T03:10:25;22.80;73.10
27647;DHT22;42229;51.230;6.240;2023-06-19T03:12:51;22.70;72.40
27647;DHT22;42229;51.230;6.240;2023-06-19T03:15:17;22.60;71.40
27647;DHT22;42229;51.230;6.240;2023-06-19T03:17:47;22.50;72.50
27647;DHT22;42229;51.230;6.240;2023-06-19T03:20:14;22.50;75.20
27647;DHT22;42229;51.230;6.240;2023-06-19T03:22:47;22.40;75.60
27647;DHT22;42229;51.230;6.240;2023-06-19T03:25:15;22.30;75.70
27647;DHT22;42229;51.230;6.240;2023-06-19T03:27:41;22.30;73.10
27647;DHT22;42229;51.230;6.240;2023-06-19T03:30:08;22.20;75.10
27647;DHT22;42229;51.230;6.240;2023-06-19T03:32:39;22.20;72.80
27647;DHT22;42229;51.230;6.240;2023-06-19T03:35:08;22.10;73.70
27647;DHT22;42229;51.230;6.240;2023-06-19T03:37:40;22.00;74.70
27647;DHT22;42229;51.230;6.240;2023-06-19T03:40:07;21.90;73.10
27647;DHT22;42229;51.230;6.240;2023-06-19T03:42:40;21.90;73.20
27647;DHT22;42229;51.230;6.240;2023-06-19T03:45:07;21.80;72.30
27647;DHT22;42229;51.230;6.240;2023-06-19T03:47:34;21.80;76.30
27647;DHT22;42229;51.230;6.240;2023-06-19T03:50:00;21.70;74.30
27647;DHT22;42229;51.230;6.240;2023-06-19T03:52:27;21.60;72.30
27647;DHT22;42229;51.230;6.240;2023-06-19T03:54:53;21.60;75.00
27647;DHT22;42229;51.230;6.240;2023-06-19T03:57:19;21.60;73.60
27647;DHT22;42229;51.230;6.240;2023-06-19T03:59:46;21.60;74.10
27647;DHT22;42229;51.230;6.240;2023-06-19T04:02:13;21.50;72.50
27647;DHT22;42229;51.230;6.240;2023-06-19T04:04:39;21.50;73.20
27647;DHT22;42229;51.230;6.240;2023-06-19T04:07:05;21.40;72.40
27647;DHT22;42229;51.230;6.240;2023-06-19T04:09:31;21.40;71.60
27647;DHT22;42229;51.230;6.240;2023-06-19T04:11:57;21.40;72.00
27647;DHT22;42229;51.230;6.240;2023-06-19T04:14:24;21.30;71.40
27647;DHT22;42229;51.230;6.240;2023-06-19T04:16:50;21.30;73.00
27647;DHT22;42229;51.230;6.240;2023-06-19T04:19:17;21.30;73.60
27647;DHT22;42229;51.230;6.240;2023-06-19T04:21:43;21.30;71.90
27647;DHT22;42229;51.230;6.240;2023-06-19T04:24:09;21.30;73.10
27647;DHT22;42229;51.230;6.240;2023-06-19T04:26:36;21.30;72.40
27647;DHT22;42229;51.230;6.240;2023-06-19T04:29:05;21.30;74.30
27647;DHT22;42229;51.230;6.240;2023-06-19T04:31:32;21.20;72.70
27647;DHT22;42229;51.230;6.240;2023-06-19T04:33:58;21.30;72.70
27647;DHT22;42229;51.230;6.240;2023-06-19T04:36:24;21.30;73.50
27647;DHT22;42229;51.230;6.240;2023-06-19T04:38:50;21.30;78.60
27647;DHT22;42229;51.230;6.240;2023-06-19T04:41:18;21.30;75.50
27647;DHT22;42229;51.230;6.240;2023-06-19T04:43:44;21.40;73.30
27647;DHT22;42229;51.230;6.240;2023-06-19T04:46:10;21.40;73.20
27647;DHT22;42229;51.230;6.240;2023-06-19T04:48:36;21.40;73.20
27647;DHT22;42229;51.230;6.240;2023-06-19T04:51:03;21.40;76.60
27647;DHT22;42229;51.230;6.240;2023-06-19T04:53:29;21.50;74.50
27647;DHT22;42229;51.230;6.240;2023-06-19T04:55:55;21.60;77.70
27647;DHT22;42229;51.230;6.240;2023-06-19T04:58:21;21.60;74.80
27647;DHT22;42229;51.230;6.240;2023-06-19T05:00:48;21.60;75.60
27647;DHT22;42229;51.230;6.240;2023-06-19T05:03:18;21.70;75.70
27647;DHT22;42229;51.230;6.240;2023-06-19T05:05:44;21.70;74.30
27647;DHT22;42229;51.230;6.240;2023-06-19T05:08:12;21.70;75.80
27647;DHT22;42229;51.230;6.240;2023-06-19T05:10:38;21.80;75.40
27647;DHT22;42229;51.230;6.240;2023-06-19T05:13:04;21.80;80.30
27647;DHT22;42229;51.230;6.240;2023-06-19T05:15:31;21.90;76.10
27647;DHT22;42229;51.230;6.240;2023-06-19T05:17:57;22.00;82.80
27647;DHT22;42229;51.230;6.240;2023-06-19T05:20:23;22.00;76.70
27647;DHT22;42229;51.230;6.240;2023-06-19T05:22:49;22.00;75.70
27647;DHT22;42229;51.230;6.240;2023-06-19T05:25:16;22.10;76.80
27647;DHT22;42229;51.230;6.240;2023-06-19T05:27:42;22.20;79.30
27647;DHT22;42229;51.230;6.240;2023-06-19T05:30:08;22.20;78.10
27647;DHT22;42229;51.230;6.240;2023-06-19T05:32:35;22.20;78.40
27647;DHT22;42229;51.230;6.240;2023-06-19T05:35:01;22.30;79.40
27647;DHT22;42229;51.230;6.240;2023-06-19T05:37:27;22.30;79.00
27647;DHT22;42229;51.230;6.240;2023-06-19T05:39:53;22.30;77.80
27647;DHT22;42229;51.230;6.240;2023-06-19T05:42:20;22.30;79.20
27647;DHT22;42229;51.230;6.240;2023-06-19T05:44:46;22.40;79.00
27647;DHT22;42229;51.230;6.240;2023-06-19T05:47:13;22.30;81.10
27647;DHT22;42229;51.230;6.240;2023-06-19T05:49:39;22.40;78.60
27647;DHT22;42229;51.230;6.240;2023-06-19T05:52:07;22.40;79.30
27647;DHT22;42229;51.230;6.240;2023-06-19T05:54:33;22.40;80.20
27647;DHT22;42229;51.230;6.240;2023-06-19T05:56:59;22.40;79.10
27647;DHT22;42229;51.230;6.240;2023-06-19T05:59:25;22.40;81.80
27647;DHT22;42229;51.230;6.240;2023-06-19T06:01:52;22.30;81.10
27647;DHT22;42229;51.230;6.240;2023-06-19T06:04:19;22.20;80.30
27647;DHT22;42229;51.230;6.240;2023-06-19T06:06:47;22.10;80.80
27647;DHT22;42229;51.230;6.240;2023-06-19T06:09:13;22.10;82.10
27647;DHT22;42229;51.230;6.240;2023-06-19T06:11:40;22.00;80.40
27647;DHT22;42229;51.230;6.240;2023-06-19T06:14:06;21.90;79.40
27647;DHT22;42229;51.230;6.240;2023-06-19T06:16:33;21.80;80.60
27647;DHT22;42229;51.230;6.240;2023-06-19T06:18:59;21.80;81.40
27647;DHT22;42229;51.230;6.240;2023-06-19T06:21:25;21.70;81.70
27647;DHT22;42229;51.230;6.240;2023-06-19T06:23:51;21.70;83.30
27647;DHT22;42229;51.230;6.240;2023-06-19T06:26:18;21.70;80.60
27647;DHT22;42229;51.230;6.240;2023-06-19T06:28:44;21.70;80.80
27647;DHT22;42229;51.230;6.240;2023-06-19T06:31:10;21.70;80.80
27647;DHT22;42229;51.230;6.240;2023-06-19T06:33:37;21.70;86.80
27647;DHT22;42229;51.230;6.240;2023-06-19T06:36:03;21.70;84.00
27647;DHT22;42229;51.230;6.240;2023-06-19T06:38:29;21.70;84.30
27647;DHT22;42229;51.230;6.240;2023-06-19T06:40:55;21.70;84.50
27647;DHT22;42229;51.230;6.240;2023-06-19T06:43:22;21.70;82.90
27647;DHT22;42229;51.230;6.240;2023-06-19T06:45:48;21.70;83.30
27647;DHT22;42229;51.230;6.240;2023-06-19T06:48:14;21.70;82.60
27647;DHT22;42229;51.230;6.240;2023-06-19T06:50:41;21.60;82.90
27647;DHT22;42229;51.230;6.240;2023-06-19T06:53:07;21.60;81.70
27647;DHT22;42229;51.230;6.240;2023-06-19T06:55:34;21.50;83.00
27647;DHT22;42229;51.230;6.240;2023-06-19T06:58:00;21.40;82.40
27647;DHT22;42229;51.230;6.240;2023-06-19T07:00:26;21.40;83.80
27647;DHT22;42229;51.230;6.240;2023-06-19T07:02:53;21.40;83.10
27647;DHT22;42229;51.230;6.240;2023-06-19T07:05:19;21.40;87.20
27647;DHT22;42229;51.230;6.240;2023-06-19T07:07:46;21.30;86.70
27647;DHT22;42229;51.230;6.240;2023-06-19T07:10:12;21.30;85.40
27647;DHT22;42229;51.230;6.240;2023-06-19T07:12:45;21.30;86.90
27647;DHT22;42229;51.230;6.240;2023-06-19T07:15:12;21.40;86.40
27647;DHT22;42229;51.230;6.240;2023-06-19T07:17:38;21.40;86.00
27647;DHT22;42229;51.230;6.240;2023-06-19T07:20:04;21.50;85.60
27647;DHT22;42229;51.230;6.240;2023-06-19T07:22:32;21.60;85.80
27647;DHT22;42229;51.230;6.240;2023-06-19T07:24:58;21.60;87.60
27647;DHT22;42229;51.230;6.240;2023-06-19T07:27:24;21.80;86.50
27647;DHT22;42229;51.230;6.240;2023-06-19T07:29:53;21.90;87.40
27647;DHT22;42229;51.230;6.240;2023-06-19T07:32:19;22.00;90.30
27647;DHT22;42229;51.230;6.240;2023-06-19T07:34:46;22.20;89.20
27647;DHT22;42229;51.230;6.240;2023-06-19T07:37:12;22.30;88.30
27647;DHT22;42229;51.230;6.240;2023-06-19T07:39:44;22.40;88.40
27647;DHT22;42229;51.230;6.240;2023-06-19T07:42:11;22.50;88.10
27647;DHT22;42229;51.230;6.240;2023-06-19T07:44:37;22.60;90.10
27647;DHT22;42229;51.230;6.240;2023-06-19T07:47:03;22.70;89.30
27647;DHT22;42229;51.230;6.240;2023-06-19T07:49:29;22.80;88.70
27647;DHT22;42229;51.230;6.240;2023-06-19T07:51:56;22.90;91.00
27647;DHT22;42229;51.230;6.240;2023-06-19T07:54:22;23.00;90.30
27647;DHT22;42229;51.230;6.240;2023-06-19T07:56:48;23.10;91.40
27647;DHT22;42229;51.230;6.240;2023-06-19T07:59:14;23.20;90.60
27647;DHT22;42229;51.230;6.240;2023-06-19T08:01:41;23.30;90.60
27647;DHT22;42229;51.230;6.240;2023-06-19T08:04:07;23.40;90.40
27647;DHT22;42229;51.230;6.240;2023-06-19T08:06:33;23.60;90.50
27647;DHT22;42229;51.230;6.240;2023-06-19T08:08:59;23.70;90.50
27647;DHT22;42229;51.230;6.240;2023-06-19T08:11:26;23.80;90.40
27647;DHT22;42229;51.230;6.240;2023-06-19T08:13:52;24.10;90.40
27647;DHT22;42229;51.230;6.240;2023-06-19T08:16:18;24.10;90.20
27647;DHT22;42229;51.230;6.240;2023-06-19T08:18:45;24.30;90.20
27647;DHT22;42229;51.230;6.240;2023-06-19T08:21:12;24.30;89.90
27647;DHT22;42229;51.230;6.240;2023-06-19T08:23:39;24.50;90.00
27647;DHT22;42229;51.230;6.240;2023-06-19T08:26:06;24.60;90.00
27647;DHT22;42229;51.230;6.240;2023-06-19T08:28:34;24.70;89.40
27647;DHT22;42229;51.230;6.240;2023-06-19T08:31:00;24.80;88.80
27647;DHT22;42229;51.230;6.240;2023-06-19T08:33:26;24.80;88.80
27647;DHT22;42229;51.230;6.240;2023-06-19T08:35:52;24.90;88.70
27647;DHT22;42229;51.230;6.240;2023-06-19T08:38:19;24.90;89.30
27647;DHT22;42229;51.230;6.240;2023-06-19T08:40:45;24.90;88.90
27647;DHT22;42229;51.230;6.240;2023-06-19T08:43:11;24.90;88.60
27647;DHT22;42229;51.230;6.240;2023-06-19T08:45:37;25.00;89.10
27647;DHT22;42229;51.230;6.240;2023-06-19T08:48:04;25.10;88.20
27647;DHT22;42229;51.230;6.240;2023-06-19T08:50:36;25.10;88.80
27647;DHT22;42229;51.230;6.240;2023-06-19T08:53:02;25.10;85.80
27647;DHT22;42229;51.230;6.240;2023-06-19T08:55:29;25.30;87.10
27647;DHT22;42229;51.230;6.240;2023-06-19T08:57:55;25.20;86.40
27647;DHT22;42229;51.230;6.240;2023-06-19T09:00:22;25.20;86.10
27647;DHT22;42229;51.230;6.240;2023-06-19T09:02:52;25.20;86.60
27647;DHT22;42229;51.230;6.240;2023-06-19T09:05:26;25.30;84.60
27647;DHT22;42229;51.230;6.240;2023-06-19T09:07:56;25.30;86.50
27647;DHT22;42229;51.230;6.240;2023-06-19T09:10:23;25.30;86.30
27647;DHT22;42229;51.230;6.240;2023-06-19T09:12:56;25.40;85.70
27647;DHT22;42229;51.230;6.240;2023-06-19T09:15:27;25.40;84.60
27647;DHT22;42229;51.230;6.240;2023-06-19T09:20:32;25.60;84.30
27647;DHT22;42229;51.230;6.240;2023-06-19T09:22:59;25.60;85.80
27647;DHT22;42229;51.230;6.240;2023-06-19T09:25:25;25.70;84.80
27647;DHT22;42229;51.230;6.240;2023-06-19T09:27:53;25.70;84.00
27647;DHT22;42229;51.230;6.240;2023-06-19T09:30:20;25.80;80.10
27647;DHT22;42229;51.230;6.240;2023-06-19T09:32:47;25.80;81.10
27647;DHT22;42229;51.230;6.240;2023-06-19T09:35:13;25.80;83.00
27647;DHT22;42229;51.230;6.240;2023-06-19T09:37:40;25.80;82.30
27647;DHT22;42229;51.230;6.240;2023-06-19T09:40:07;25.80;80.50
27647;DHT22;42229;51.230;6.240;2023-06-19T09:42:45;25.80;79.10
27647;DHT22;42229;51.230;6.240;2023-06-19T09:45:19;25.80;78.60
27647;DHT22;42229;51.230;6.240;2023-06-19T09:47:47;25.80;82.30
27647;DHT22;42229;51.230;6.240;2023-06-19T09:50:17;25.80;78.20
27647;DHT22;42229;51.230;6.240;2023-06-19T09:52:47;25.90;76.50
27647;DHT22;42229;51.230;6.240;2023-06-19T09:55:17;25.90;79.20
27647;DHT22;42229;51.230;6.240;2023-06-19T09:57:43;25.80;78.50
27647;DHT22;42229;51.230;6.240;2023-06-19T10:00:10;25.90;80.60
27647;DHT22;42229;51.230;6.240;2023-06-19T10:02:46;25.90;75.50
27647;DHT22;42229;51.230;6.240;2023-06-19T10:05:12;25.90;77.80
27647;DHT22;42229;51.230;6.240;2023-06-19T10:07:46;26.00;75.60
27647;DHT22;42229;51.230;6.240;2023-06-19T10:10:27;26.00;79.30
27647;DHT22;42229;51.230;6.240;2023-06-19T10:12:55;26.00;77.10
27647;DHT22;42229;51.230;6.240;2023-06-19T10:15:27;26.10;75.00
27647;DHT22;42229;51.230;6.240;2023-06-19T10:18:01;26.10;74.50
27647;DHT22;42229;51.230;6.240;2023-06-19T10:20:32;26.20;77.30
27647;DHT22;42229;51.230;6.240;2023-06-19T10:23:03;26.30;78.60
27647;DHT22;42229;51.230;6.240;2023-06-19T10:25:32;26.40;76.70
27647;DHT22;42229;51.230;6.240;2023-06-19T10:28:03;26.40;76.70
27647;DHT22;42229;51.230;6.240;2023-06-19T10:30:32;26.50;78.00
27647;DHT22;42229;51.230;6.240;2023-06-19T10:32:59;26.60;75.90
27647;DHT22;42229;51.230;6.240;2023-06-19T10:35:36;26.70;75.40
27647;DHT22;42229;51.230;6.240;2023-06-19T10:38:04;26.80;71.50
27647;DHT22;42229;51.230;6.240;2023-06-19T10:40:30;26.90;75.00
27647;DHT22;42229;51.230;6.240;2023-06-19T10:42:57;27.00;74.10
27647;DHT22;42229;51.230;6.240;2023-06-19T10:45:23;27.10;75.60
27647;DHT22;42229;51.230;6.240;2023-06-19T10:47:54;27.20;74.80
27647;DHT22;42229;51.230;6.240;2023-06-19T10:50:21;27.30;73.80
27647;DHT22;42229;51.230;6.240;2023-06-19T10:52:48;27.40;72.80
27647;DHT22;42229;51.230;6.240;2023-06-19T10:55:21;27.50;75.20
27647;DHT22;42229;51.230;6.240;2023-06-19T10:57:48;27.60;73.70
27647;DHT22;42229;51.230;6.240;2023-06-19T11:00:28;27.70;69.30
27647;DHT22;42229;51.230;6.240;2023-06-19T11:02:56;27.80;73.20
27647;DHT22;42229;51.230;6.240;2023-06-19T11:05:23;27.90;69.10
27647;DHT22;42229;51.230;6.240;2023-06-19T11:07:50;27.90;73.20
27647;DHT22;42229;51.230;6.240;2023-06-19T11:10:21;28.10;74.00
27647;DHT22;42229;51.230;6.240;2023-06-19T11:12:49;28.20;72.70
27647;DHT22;42229;51.230;6.240;2023-06-19T11:15:16;28.30;74.00
27647;DHT22;42229;51.230;6.240;2023-06-19T11:17:42;28.40;73.60
27647;DHT22;42229;51.230;6.240;2023-06-19T11:20:09;28.40;69.70
27647;DHT22;42229;51.230;6.240;2023-06-19T11:22:40;28.50;67.80
27647;DHT22;42229;51.230;6.240;2023-06-19T11:25:07;28.60;73.00
27647;DHT22;42229;51.230;6.240;2023-06-19T11:27:36;28.60;72.20
27647;DHT22;42229;51.230;6.240;2023-06-19T11:30:05;28.60;69.40
27647;DHT22;42229;51.230;6.240;2023-06-19T11:32:34;28.70;70.50
27647;DHT22;42229;51.230;6.240;2023-06-19T11:35:11;28.70;69.60
27647;DHT22;42229;51.230;6.240;2023-06-19T11:37:41;28.80;67.70
27647;DHT22;42229;51.230;6.240;2023-06-19T11:40:08;28.80;71.60
27647;DHT22;42229;51.230;6.240;2023-06-19T11:42:45;28.90;69.40
27647;DHT22;42229;51.230;6.240;2023-06-19T11:45:12;28.90;70.20
27647;DHT22;42229;51.230;6.240;2023-06-19T11:47:38;29.10;71.20
27647;DHT22;42229;51.230;6.240;2023-06-19T11:50:05;29.20;69.80
27647;DHT22;42229;51.230;6.240;2023-06-19T11:52:31;29.20;67.50
27647;DHT22;42229;51.230;6.240;2023-06-19T11:54:58;29.40;69.50
27647;DHT22;42229;51.230;6.240;2023-06-19T11:57:24;29.40;69.40
27647;DHT22;42229;51.230;6.240;2023-06-19T11:59:52;29.50;68.40
27647;DHT22;42229;51.230;6.240;2023-06-19T12:02:18;29.60;70.10
27647;DHT22;42229;51.230;6.240;2023-06-19T12:04:45;29.60;63.60
27647;DHT22;42229;51.230;6.240;2023-06-19T12:07:11;29.70;68.40
27647;DHT22;42229;51.230;6.240;2023-06-19T12:09:37;29.70;68.50
27647;DHT22;42229;51.230;6.240;2023-06-19T12:12:05;29.90;67.60
27647;DHT22;42229;51.230;6.240;2023-06-19T12:14:32;30.00;66.70
27647;DHT22;42229;51.230;6.240;2023-06-19T12:16:58;30.10;65.20
27647;DHT22;42229;51.230;6.240;2023-06-19T12:19:25;30.20;68.10
27647;DHT22;42229;51.230;6.240;2023-06-19T12:21:52;30.30;60.00
27647;DHT22;42229;51.230;6.240;2023-06-19T12:24:18;30.30;66.30
27647;DHT22;42229;51.230;6.240;2023-06-19T12:26:44;30.30;66.80
27647;DHT22;42229;51.230;6.240;2023-06-19T12:29:10;30.30;64.60
27647;DHT22;42229;51.230;6.240;2023-06-19T12:31:37;30.40;64.10
27647;DHT22;42229;51.230;6.240;2023-06-19T12:34:03;30.40;63.40
27647;DHT22;42229;51.230;6.240;2023-06-19T12:36:31;30.50;63.60
27647;DHT22;42229;51.230;6.240;2023-06-19T12:38:58;30.70;67.20
27647;DHT22;42229;51.230;6.240;2023-06-19T12:41:25;30.90;65.70
27647;DHT22;42229;51.230;6.240;2023-06-19T12:43:51;31.10;67.20
27647;DHT22;42229;51.230;6.240;2023-06-19T12:46:17;31.40;66.00
27647;DHT22;42229;51.230;6.240;2023-06-19T12:48:43;31.70;61.50
27647;DHT22;42229;51.230;6.240;2023-06-19T12:51:10;32.10;61.30
27647;DHT22;42229;51.230;6.240;2023-06-19T12:53:36;32.30;64.30
27647;DHT22;42229;51.230;6.240;2023-06-19T12:56:02;32.60;63.30
27647;DHT22;42229;51.230;6.240;2023-06-19T12:58:28;32.80;55.80
27647;DHT22;42229;51.230;6.240;2023-06-19T13:00:54;33.00;57.80
27647;DHT22;42229;51.230;6.240;2023-06-19T13:03:21;33.00;61.80
27647;DHT22;42229;51.230;6.240;2023-06-19T13:05:47;33.10;59.60
27647;DHT22;42229;51.230;6.240;2023-06-19T13:08:13;33.20;61.60
27647;DHT22;42229;51.230;6.240;2023-06-19T13:10:39;33.30;63.80
27647;DHT22;42229;51.230;6.240;2023-06-19T13:13:06;33.50;62.30
27647;DHT22;42229;51.230;6.240;2023-06-19T13:15:32;33.70;64.90
27647;DHT22;42229;51.230;6.240;2023-06-19T13:18:01;33.90;64.50
27647;DHT22;42229;51.230;6.240;2023-06-19T13:20:27;34.20;61.70
27647;DHT22;42229;51.230;6.240;2023-06-19T13:22:53;34.30;56.80
27647;DHT22;42229;51.230;6.240;2023-06-19T13:25:20;34.50;61.00
27647;DHT22;42229;51.230;6.240;2023-06-19T13:27:47;34.60;62.30
27647;DHT22;42229;51.230;6.240;2023-06-19T13:30:13;34.70;55.90
27647;DHT22;42229;51.230;6.240;2023-06-19T13:32:39;34.70;56.80
27647;DHT22;42229;51.230;6.240;2023-06-19T13:35:06;34.70;54.60
27647;DHT22;42229;51.230;6.240;2023-06-19T13:37:36;34.70;53.00
27647;DHT22;42229;51.230;6.240;2023-06-19T13:40:04;34.70;56.60
27647;DHT22;42229;51.230;6.240;2023-06-19T13:42:31;34.70;58.90
27647;DHT22;42229;51.230;6.240;2023-06-19T13:44:58;34.70;56.20
27647;DHT22;42229;51.230;6.240;2023-06-19T13:47:25;34.80;56.00
27647;DHT22;42229;51.230;6.240;2023-06-19T13:49:51;34.90;56.10
27647;DHT22;42229;51.230;6.240;2023-06-19T13:52:17;34.90;56.50
27647;DHT22;42229;51.230;6.240;2023-06-19T13:54:44;34.90;57.80
27647;DHT22;42229;51.230;6.240;2023-06-19T13:57:10;34.80;57.10
27647;DHT22;42229;51.230;6.240;2023-06-19T13:59:36;34.80;56.30
27647;DHT22;42229;51.230;6.240;2023-06-19T14:02:02;34.80;58.30
27647;DHT22;42229;51.230;6.240;2023-06-19T14:04:29;34.70;54.60
27647;DHT22;42229;51.230;6.240;2023-06-19T14:06:55;34.70;56.10
27647;DHT22;42229;51.230;6.240;2023-06-19T14:09:21;34.70;55.40
27647;DHT22;42229;51.230;6.240;2023-06-19T14:11:47;34.70;54.70
27647;DHT22;42229;51.230;6.240;2023-06-19T14:14:14;34.80;56.00
27647;DHT22;42229;51.230;6.240;2023-06-19T14:16:40;34.90;54.70
27647;DHT22;42229;51.230;6.240;2023-06-19T14:19:06;35.00;57.20
27647;DHT22;42229;51.230;6.240;2023-06-19T14:21:32;35.20;52.60
27647;DHT22;42229;51.230;6.240;2023-06-19T14:23:58;35.40;55.90
27647;DHT22;42229;51.230;6.240;2023-06-19T14:26:25;35.50;53.10
27647;DHT22;42229;51.230;6.240;2023-06-19T14:28:51;35.60;54.80
27647;DHT22;42229;51.230;6.240;2023-06-19T14:31:23;35.80;56.00
27647;DHT22;42229;51.230;6.240;2023-06-19T14:33:49;36.00;55.30
27647;DHT22;42229;51.230;6.240;2023-06-19T14:36:16;36.20;55.50
27647;DHT22;42229;51.230;6.240;2023-06-19T14:38:42;36.40;56.20
27647;DHT22;42229;51.230;6.240;2023-06-19T14:41:08;36.60;55.00
27647;DHT22;42229;51.230;6.240;2023-06-19T14:43:34;36.70;51.30
27647;DHT22;42229;51.230;6.240;2023-06-19T14:46:01;36.80;54.70
27647;DHT22;42229;51.230;6.240;2023-06-19T14:48:30;36.90;50.20
27647;DHT22;42229;51.230;6.240;2023-06-19T14:50:56;37.00;54.70
27647;DHT22;42229;51.230;6.240;2023-06-19T14:53:22;37.00;51.20
27647;DHT22;42229;51.230;6.240;2023-06-19T14:55:49;37.00;53.50
27647;DHT22;42229;51.230;6.240;2023-06-19T14:58:15;37.00;53.00
27647;DHT22;42229;51.230;6.240;2023-06-19T15:00:41;37.00;49.90
27647;DHT22;42229;51.230;6.240;2023-06-19T15:03:07;37.10;51.30
27647;DHT22;42229;51.230;6.240;2023-06-19T15:05:34;37.10;52.00
27647;DHT22;42229;51.230;6.240;2023-06-19T15:08:00;37.30;48.40
27647;DHT22;42229;51.230;6.240;2023-06-19T15:10:27;37.40;53.90
27647;DHT22;42229;51.230;6.240;2023-06-19T15:12:53;37.60;53.90
27647;DHT22;42229;51.230;6.240;2023-06-19T15:15:19;37.80;52.10
27647;DHT22;42229;51.230;6.240;2023-06-19T15:17:45;37.90;52.90
27647;DHT22;42229;51.230;6.240;2023-06-19T15:20:12;38.10;50.30
27647;DHT22;42229;51.230;6.240;2023-06-19T15:22:39;38.20;52.40
27647;DHT22;42229;51.230;6.240;2023-06-19T15:25:05;38.30;53.40
27647;DHT22;42229;51.230;6.240;2023-06-19T15:27:32;38.50;52.00
27647;DHT22;42229;51.230;6.240;2023-06-19T15:29:58;38.50;50.10
27647;DHT22;42229;51.230;6.240;2023-06-19T15:32:24;38.50;51.50